createdAt,value
2022-11-18T00:09:58.008Z,11.13
2022-11-18T00:20:02.455Z,11.11
2022-11-18T00:30:06.152Z,10.94
2022-11-18T00:40:12.022Z,11.10
2022-11-18T00:50:15.302Z,11.07
2022-11-18T01:00:20.210Z,11.09
2022-11-18T01:10:23.212Z,10.98
2022-11-18T01:20:27.674Z,10.91
2022-11-18T01:30:30.722Z,10.85
2022-11-18T01:40:36.299Z,10.95
2022-11-18T01:50:42.962Z,10.94
2022-11-18T02:00:47.294Z,10.89
2022-11-18T02:10:50.280Z,10.89
2022-11-18T02:20:58.943Z,10.96
2022-11-18T02:31:08.629Z,10.94
2022-11-18T02:41:17.383Z,10.86
2022-11-18T02:51:26.317Z,11.00
2022-11-18T03:01:32.792Z,10.97
2022-11-18T03:11:45.551Z,10.97
2022-11-18T03:21:56.413Z,10.97
2022-11-18T03:32:06.999Z,11.01
2022-11-18T03:42:16.718Z,10.96
2022-11-18T03:52:25.442Z,10.90
2022-11-18T04:02:31.087Z,10.93
2022-11-18T04:12:40.539Z,10.94
2022-11-18T04:22:43.728Z,10.93
2022-11-18T04:32:48.364Z,10.93
2022-11-18T04:42:51.170Z,10.89
2022-11-18T04:52:55.292Z,10.96
2022-11-18T05:02:58.169Z,10.88
2022-11-18T05:13:02.515Z,10.80
2022-11-18T05:23:05.203Z,10.73
2022-11-18T05:33:09.418Z,10.71
2022-11-18T05:43:12.791Z,10.72
2022-11-18T05:53:18.333Z,10.76
2022-11-18T06:03:30.547Z,10.71
2022-11-18T06:13:39.902Z,10.66
2022-11-18T06:23:44.595Z,10.57
2022-11-18T06:33:48.921Z,10.62
2022-11-18T06:43:51.918Z,10.51
2022-11-18T06:53:56.458Z,10.43
2022-11-18T07:04:00.921Z,10.43
2022-11-18T07:14:05.102Z,10.39
2022-11-18T07:24:09.734Z,10.55
2022-11-18T07:34:14.650Z,10.70
2022-11-18T07:44:18.442Z,10.72
2022-11-18T07:54:22.685Z,10.78
2022-11-18T08:04:25.546Z,10.82
2022-11-18T08:14:30.436Z,10.91
2022-11-18T08:24:33.401Z,10.88
2022-11-18T08:34:39.276Z,10.94
2022-11-18T08:44:42.373Z,10.98
2022-11-18T08:54:46.705Z,10.99
2022-11-18T09:04:50.609Z,11.07
2022-11-18T09:25:18.020Z,11.34
2022-11-18T09:35:23.994Z,11.35
2022-11-18T09:45:34.385Z,11.59
2022-11-18T09:55:41.185Z,11.55
2022-11-18T10:05:49.578Z,11.52
2022-11-18T10:16:05.088Z,11.82
2022-11-18T10:26:08.166Z,12.09
2022-11-18T10:36:28.232Z,12.21
2022-11-18T10:46:33.250Z,12.39
2022-11-18T11:01:48.002Z,12.82
2022-11-18T11:07:26.163Z,12.91
2022-11-18T11:17:35.292Z,13.08
2022-11-18T11:38:19.517Z,13.20
2022-11-18T11:48:32.937Z,13.57
2022-11-18T11:58:58.314Z,13.21
2022-11-18T12:09:09.364Z,13.06
2022-11-18T12:19:16.841Z,12.91
2022-11-18T12:29:24.839Z,12.97
2022-11-18T12:39:51.621Z,12.84
2022-11-18T12:50:15.087Z,13.18
2022-11-18T13:00:28.612Z,13.17
2022-11-18T13:10:35.829Z,13.57
2022-11-18T13:20:41.064Z,13.37
2022-11-18T13:30:53.467Z,13.39
2022-11-18T13:41:07.771Z,13.44
2022-11-18T13:51:13.666Z,13.23
2022-11-18T14:01:20.786Z,13.32
2022-11-18T14:11:38.648Z,13.09
2022-11-18T14:21:41.697Z,12.90
2022-11-18T14:32:33.114Z,13.06
2022-11-18T14:43:32.002Z,12.97
2022-11-18T14:55:16.781Z,12.88
2022-11-18T15:06:29.062Z,12.91
2022-11-18T15:17:55.736Z,12.84
2022-11-18T15:28:49.840Z,12.80
2022-11-18T15:51:11.956Z,12.64
2022-11-18T16:02:15.224Z,12.78
2022-11-18T16:25:20.111Z,12.56
2022-11-18T16:36:31.378Z,12.56
2022-11-18T16:46:46.585Z,12.53
2022-11-18T16:56:50.624Z,12.31
2022-11-18T17:06:55.398Z,12.38
2022-11-18T17:17:01.528Z,12.34
2022-11-18T17:27:06.179Z,12.30
2022-11-18T17:37:09.368Z,12.10
2022-11-18T17:47:13.841Z,12.15
2022-11-18T17:57:16.882Z,11.93
2022-11-18T18:07:21.382Z,11.99
2022-11-18T18:17:24.468Z,12.02
2022-11-18T18:27:28.847Z,11.94
2022-11-18T18:37:31.931Z,11.86
2022-11-18T18:47:36.586Z,11.83
2022-11-18T18:57:39.631Z,11.60
2022-11-18T19:07:44.366Z,11.58
2022-11-18T19:17:47.949Z,11.68
2022-11-18T19:27:52.231Z,11.59
2022-11-18T19:37:55.266Z,11.49
2022-11-18T19:48:02.173Z,11.54
2022-11-18T19:58:05.260Z,11.49
2022-11-18T20:08:09.520Z,11.54
2022-11-18T20:18:12.834Z,11.43
2022-11-18T20:28:17.245Z,11.49
2022-11-18T20:38:20.218Z,11.32
2022-11-18T20:48:24.771Z,11.33
2022-11-18T20:58:27.856Z,11.37
2022-11-18T21:08:32.188Z,11.00
2022-11-18T21:18:35.242Z,11.04
2022-11-18T21:28:39.478Z,11.15
2022-11-18T21:38:42.660Z,10.88
2022-11-18T21:48:47.239Z,10.65
2022-11-18T21:58:50.772Z,10.96
2022-11-18T22:08:55.304Z,11.10
2022-11-18T22:19:03.632Z,10.94
2022-11-18T22:29:11.205Z,11.01
2022-11-18T22:39:14.206Z,10.68
2022-11-18T22:49:18.901Z,10.77
2022-11-18T22:59:22.460Z,10.64
2022-11-18T23:09:27.152Z,10.63
2022-11-18T23:19:30.106Z,10.68
2022-11-18T23:29:34.520Z,10.91
2022-11-18T23:39:37.590Z,10.77
2022-11-18T23:49:41.845Z,10.74
2022-11-18T23:59:44.919Z,10.46
